ESFO2: Salt Fork Red River nr Elmer, OK

Data processed at Tue May 21 2019 23:50


All information presented herein is the property of the government of the United States of America and may be revised or deleted at any time without prior notice.
Dissemination of this information without the expressed written consent of the Public Affairs Office, Tulsa District U.S. Army Corps of Engineers is strictly prohibited.
These data are gathered electronically and, as presented, have not undergone any form of quality control. These data are not guaranteed to be valid or correct.
Go to home page.
Go to station list.
Go to home page.

Upstream stations:

Downstream station:
Previous Day
Next Day
Current Day
    
SHEF ID:       ESFO2     Salt Fork Red River near Elmer,
STATION TYPE:  
Regulating: Stage =    14.00, Flow =     4957

                STAGE  RIV-FLOW  BAT-LOAD
                   ft       cfs      volt
              Ccp-Rev   Ccp-Rev   Ccp-Rev
(US/Central)
05/21 00:00      7.48       204     12.57
05/21 01:00      7.47       202     12.57
05/21 02:00      7.52       211     12.57
05/21 03:00      7.53       213     12.49
05/21 04:00      7.57       221     12.49
05/21 05:00      7.56       219     12.49
05/21 06:00      7.58       223     12.49
05/21 07:00      7.58       223     12.49
05/21 08:00      7.60       226     12.49
05/21 09:00      7.61       228     12.49
05/21 10:00      7.64       234     12.89
05/21 11:00      7.68       242     13.37
05/21 12:00      7.67       240     13.21
05/21 13:00      7.64       234     13.21
05/21 14:00      ----      ----      ----
05/21 15:00      7.58       223     12.89
05/21 16:00      7.56       219     12.89
05/21 17:00      7.54       215     12.89
05/21 18:00      7.56       219     12.81
05/21 19:00      7.55       217     12.81
05/21 20:00      7.55       217     12.73
05/21 21:00      7.55       217     12.73
05/21 22:00      7.57       221     12.73
05/21 23:00      7.60       226     12.65